Time;durP1;ratioP1;P1;durP2;ratioP2;P2;SDS_P1;SDS_P2;PMS_P1;PMS_P2;Temp;Humidity;BMP_temperature;BMP_pressure;BME280_temperature;BME280_humidity;BME280_pressure;Samples;Min_cycle;Max_cycle;Signal;HPM_P1;HPM_P2
2021/12/15 00:00:39;;;;;;;54.22;34.90;;;;;;;9.83;84.72;102721.06;3570803;40;20118;-64
2021/12/15 00:03:07;;;;;;;54.40;36.03;;;;;;;9.84;84.68;102724.63;3573218;40;20079;-63
2021/12/15 00:05:33;;;;;;;55.75;36.05;;;;;;;9.76;84.10;102725.69;3573087;40;20100;-65
2021/12/15 00:08:03;;;;;;;56.53;36.97;;;;;;;9.76;84.41;102719.47;3574324;40;20056;-64
2021/12/15 00:10:30;;;;;;;51.40;34.33;;;;;;;9.76;84.85;102725.69;3562195;40;20045;-64
2021/12/15 00:12:57;;;;;;;56.97;36.47;;;;;;;9.73;84.26;102714.16;3574167;40;20052;-64
2021/12/15 00:15:27;;;;;;;55.92;35.20;;;;;;;9.80;84.35;102721.16;3572301;40;20071;-63
2021/12/15 00:17:56;;;;;;;52.80;35.35;;;;;;;9.80;85.16;102721.16;3573472;40;20059;-64
2021/12/15 00:20:23;;;;;;;55.97;33.63;;;;;;;9.85;84.40;102712.94;3572832;40;20101;-63
2021/12/15 00:22:52;;;;;;;59.65;36.30;;;;;;;9.80;84.06;102715.78;3573557;40;20056;-63
2021/12/15 00:25:22;;;;;;;56.80;36.50;;;;;;;9.81;83.99;102706.78;3573046;40;20394;-64
2021/12/15 00:27:48;;;;;;;55.92;36.00;;;;;;;9.79;84.70;102705.94;3572423;40;20336;-63
2021/12/15 00:30:15;;;;;;;53.67;36.22;;;;;;;9.82;84.31;102713.91;3574294;40;20065;-63
2021/12/15 00:32:41;;;;;;;55.58;36.13;;;;;;;9.73;84.54;102690.00;3573711;40;20368;-64
2021/12/15 00:35:08;;;;;;;52.50;34.58;;;;;;;9.82;84.37;102713.91;3573106;40;20051;-63
2021/12/15 00:37:35;;;;;;;53.65;35.65;;;;;;;9.77;84.03;102699.75;3572889;40;20060;-63
2021/12/15 00:40:03;;;;;;;53.03;35.40;;;;;;;9.84;84.16;102716.56;3573330;40;20319;-63
2021/12/15 00:42:29;;;;;;;53.15;36.50;;;;;;;9.79;84.30;102707.75;3573009;40;20059;-64
2021/12/15 00:44:55;;;;;;;54.15;36.17;;;;;;;9.68;84.08;102690.16;3569969;40;20059;-63
2021/12/15 00:47:21;;;;;;;53.72;35.05;;;;;;;9.79;84.66;102708.63;3570212;40;20052;-63
2021/12/15 00:49:47;;;;;;;55.90;34.75;;;;;;;9.82;84.64;102711.22;3571523;40;20049;-62
2021/12/15 00:52:13;;;;;;;55.42;35.08;;;;;;;9.83;83.92;102704.97;3567766;40;20081;-63
2021/12/15 00:54:38;;;;;;;54.97;36.03;;;;;;;9.82;84.12;102702.28;3573665;40;20045;-64
2021/12/15 00:57:06;;;;;;;53.80;35.40;;;;;;;9.85;84.24;102707.59;3572305;40;20122;-64
2021/12/15 00:59:32;;;;;;;52.88;35.00;;;;;;;9.64;84.59;102671.47;3563273;40;20097;-63
2021/12/15 01:02:00;;;;;;;50.33;34.78;;;;;;;9.88;83.51;102707.50;3572863;40;20411;-64
2021/12/15 01:04:30;;;;;;;48.65;33.75;;;;;;;9.86;83.88;102707.53;3575563;40;20064;-64
2021/12/15 01:07:05;;;;;;;69.35;45.05;;;;;;;9.86;84.41;102710.22;3573266;40;20049;-64
2021/12/15 01:09:48;;;;;;;50.33;33.20;;;;;;;9.67;83.64;102676.75;3573589;40;20329;-64
2021/12/15 01:12:46;;;;;;;49.85;32.92;;;;;;;9.84;84.43;102711.19;3574327;40;20053;-64
2021/12/15 01:21:12;;;;;;;55.17;33.20;;;;;;;9.85;84.51;102723.69;3552311;40;20112;-66
2021/12/15 01:23:39;;;;;;;52.47;34.22;;;;;;;9.81;83.81;102720.22;3572491;40;20298;-64
2021/12/15 01:26:15;;;;;;;57.25;35.05;;;;;;;9.80;83.95;102721.16;3573594;40;20396;-63
2021/12/15 01:28:42;;;;;;;51.33;33.97;;;;;;;9.83;84.02;102723.75;3570264;40;20096;-64
2021/12/15 01:31:11;;;;;;;54.45;34.40;;;;;;;9.77;83.58;102710.50;3571222;40;20122;-66
2021/12/15 01:33:38;;;;;;;53.47;34.05;;;;;;;9.75;83.70;102699.78;3572029;40;20122;-64
2021/12/15 01:36:07;;;;;;;52.00;34.42;;;;;;;9.83;83.48;102715.69;3573046;40;20051;-63
2021/12/15 01:38:36;;;;;;;54.78;34.63;;;;;;;9.70;84.02;102692.78;3573693;40;20048;-66
2021/12/15 01:41:04;;;;;;;52.05;34.80;;;;;;;9.84;83.85;102716.56;3573275;40;20041;-64
2021/12/15 01:49:28;;;;;;;52.60;34.60;;;;;;;9.82;84.28;102724.66;3572136;40;20116;-63
2021/12/15 01:52:00;;;;;;;58.95;35.20;;;;;;;9.80;84.01;102715.78;3572175;40;20398;-66
2021/12/15 01:54:28;;;;;;;57.88;36.05;;;;;;;9.80;83.95;102721.16;3572238;40;20127;-63
2021/12/15 01:56:55;;;;;;;56.17;35.47;;;;;;;9.78;84.43;102731.06;3572956;40;20055;-64
2021/12/15 01:59:26;;;;;;;59.83;35.55;;;;;;;9.79;84.65;102730.13;3571260;40;20056;-64
2021/12/15 02:01:52;;;;;;;57.40;35.42;;;;;;;9.77;84.43;102731.97;3572753;40;20061;-64
2021/12/15 02:04:19;;;;;;;61.28;35.90;;;;;;;9.79;84.04;102719.38;3572209;40;20187;-64
2021/12/15 02:06:47;;;;;;;56.42;35.30;;;;;;;9.81;83.73;102732.78;3563257;40;20055;-64
2021/12/15 02:09:30;;;;;;;57.63;34.70;;;;;;;9.82;84.22;102734.53;3571737;40;20056;-64
2021/12/15 02:11:56;;;;;;;60.27;35.80;;;;;;;9.71;84.38;102726.78;3574876;40;20063;-64
2021/12/15 02:14:21;;;;;;;58.75;36.33;;;;;;;9.84;83.98;102748.81;3571565;40;20279;-64
2021/12/15 02:16:47;;;;;;;58.08;35.15;;;;;;;9.58;83.98;102706.53;3572587;40;20045;-64
2021/12/15 02:19:13;;;;;;;56.35;34.08;;;;;;;9.81;83.89;102744.41;3570380;40;20097;-64
2021/12/15 02:21:38;;;;;;;59.33;35.60;;;;;;;9.79;83.75;102735.50;3574121;40;20391;-64
2021/12/15 02:24:04;;;;;;;59.70;35.70;;;;;;;9.76;83.67;102736.44;3573333;40;20060;-64
2021/12/15 02:26:39;;;;;;;57.50;35.97;;;;;;;9.81;84.05;102743.53;3571842;40;20119;-64
2021/12/15 02:29:15;;;;;;;57.35;35.05;;;;;;;9.83;83.73;102739.88;3572880;40;20045;-63
2021/12/15 02:32:41;;;;;;;56.83;34.75;;;;;;;9.77;84.50;102738.22;3574254;40;20041;-64
2021/12/15 02:37:02;;;;;;;59.03;33.63;;;;;;;9.72;84.53;102734.78;3562883;40;20053;-64
2021/12/15 02:37:21;;;;;;;57.97;35.40;;;;;;;9.81;84.17;102743.53;3572876;40;20136;-64
2021/12/15 02:40:03;;;;;;;57.58;34.22;;;;;;;9.58;84.19;102710.13;3569647;40;20052;-64
2021/12/15 02:42:40;;;;;;;60.20;35.50;;;;;;;9.81;84.57;102735.47;3573898;40;20092;-64
2021/12/15 02:45:12;;;;;;;58.88;36.03;;;;;;;9.74;84.23;102732.94;3570971;40;20055;-64
2021/12/15 02:47:38;;;;;;;58.20;34.13;;;;;;;9.74;84.19;102727.56;3574000;40;20123;-64
2021/12/15 02:50:10;;;;;;;56.53;34.70;;;;;;;9.85;84.03;102750.56;3572915;40;20072;-64
2021/12/15 02:52:38;;;;;;;57.40;34.35;;;;;;;9.84;84.21;102738.06;3572883;40;20154;-64
2021/12/15 02:55:06;;;;;;;58.83;35.08;;;;;;;9.87;83.53;102738.84;3573591;40;20089;-64
2021/12/15 02:57:33;;;;;;;57.80;35.08;;;;;;;9.87;83.49;102743.34;3573058;40;20115;-64
2021/12/15 03:00:03;;;;;;;56.88;33.83;;;;;;;9.85;83.74;102745.19;3573509;40;20056;-63
2021/12/15 03:03:14;;;;;;;55.05;33.80;;;;;;;9.76;83.86;102728.38;3576118;40;20134;-66
2021/12/15 03:05:44;;;;;;;55.10;32.75;;;;;;;9.84;84.31;102733.56;3574227;40;20492;-64
2021/12/15 03:08:22;;;;;;;54.10;33.72;;;;;;;9.87;84.32;102736.16;3570980;40;20060;-64
2021/12/15 03:16:23;;;;;;;53.45;32.15;;;;;;;9.85;84.15;102740.69;3570543;40;20064;-63
2021/12/15 03:18:50;;;;;;;55.45;33.03;;;;;;;9.82;84.48;102735.41;3575917;40;20098;-64
2021/12/15 03:21:23;;;;;;;56.90;33.88;;;;;;;9.91;84.01;102735.16;3573255;40;20080;-64
2021/12/15 03:23:55;;;;;;;;;;;;;;;9.87;83.68;102728.09;3574249;40;20063;-65
2021/12/15 03:26:31;;;;;;;54.00;32.88;;;;;;;9.88;83.92;102728.97;3572248;40;19933;-63
2021/12/15 03:37:26;;;;;;;48.90;30.60;;;;;;;9.89;83.66;102728.94;3583540;40;20048;-63
2021/12/15 03:40:01;;;;;;;51.53;32.03;;;;;;;9.89;83.90;102734.28;3571593;40;20114;-64
2021/12/15 03:42:37;;;;;;;51.30;32.08;;;;;;;9.92;84.20;102728.84;3583577;40;20060;-64
2021/12/15 03:45:16;;;;;;;55.20;32.30;;;;;;;9.91;84.44;102734.28;3573582;40;20163;-63
2021/12/15 03:47:48;;;;;;;55.72;31.45;;;;;;;9.72;84.08;102709.72;3571555;40;20045;-64
2021/12/15 03:50:19;;;;;;;56.08;32.88;;;;;;;9.90;84.52;102754.00;3570138;40;20051;-64
2021/12/15 03:52:49;;;;;;;51.70;31.63;;;;;;;9.92;84.41;102747.63;3573143;40;20052;-63
2021/12/15 03:55:21;;;;;;;49.08;31.00;;;;;;;9.91;84.42;102745.91;3571401;40;20053;-64
2021/12/15 03:57:47;;;;;;;52.95;32.00;;;;;;;9.92;84.07;102754.81;3562823;40;20053;-64
2021/12/15 04:00:16;;;;;;;49.13;30.60;;;;;;;9.93;83.66;102749.44;3570821;40;20127;-64
2021/12/15 04:02:44;;;;;;;48.75;30.42;;;;;;;9.76;84.12;102714.97;3571693;40;20077;-63
2021/12/15 04:05:15;;;;;;;49.70;31.35;;;;;;;9.94;83.53;102748.50;3570774;40;20119;-64
2021/12/15 04:07:42;;;;;;;45.10;29.23;;;;;;;9.69;83.82;102717.88;3572532;40;20049;-64
2021/12/15 04:10:13;;;;;;;54.35;31.17;;;;;;;9.62;84.11;102705.56;3572423;40;20441;-64
2021/12/15 04:12:39;;;;;;;46.70;30.15;;;;;;;9.95;84.26;102758.31;3569134;40;20303;-64
2021/12/15 04:15:21;;;;;;;51.88;30.70;;;;;;;9.97;83.89;102751.09;3571731;40;20052;-64
2021/12/15 04:17:49;;;;;;;45.95;28.90;;;;;;;9.93;83.93;102748.56;3572564;40;20068;-63
2021/12/15 04:20:22;;;;;;;47.85;29.83;;;;;;;9.96;83.41;102760.09;3569084;40;20064;-64
2021/12/15 04:22:48;;;;;;;47.85;29.15;;;;;;;9.97;83.38;102766.34;3572352;40;20067;-64
2021/12/15 04:25:23;;;;;;;45.45;29.02;;;;;;;9.96;84.02;102762.78;3570208;40;20142;-62
2021/12/15 04:28:04;;;;;;;46.05;28.33;;;;;;;9.96;83.50;102764.59;3572221;40;20075;-64
2021/12/15 04:30:36;;;;;;;46.63;28.95;;;;;;;9.95;83.60;102763.69;3573208;40;20057;-64
2021/12/15 04:33:32;;;;;;;46.13;30.23;;;;;;;9.96;83.88;102770.84;3571715;40;20056;-64
2021/12/15 04:36:03;;;;;;;45.65;29.15;;;;;;;9.92;84.05;102766.44;3569330;40;20290;-63
2021/12/15 04:38:31;;;;;;;47.88;28.77;;;;;;;9.95;84.05;102771.72;3573656;40;20469;-64
2021/12/15 04:41:02;;;;;;;50.15;28.92;;;;;;;9.96;83.38;102773.53;3573462;40;20088;-64
2021/12/15 04:43:32;;;;;;;46.83;28.55;;;;;;;9.95;83.93;102771.72;3571277;40;20512;-64
2021/12/15 04:45:58;;;;;;;42.78;26.83;;;;;;;9.98;83.88;102773.47;3572865;40;20358;-64
2021/12/15 04:48:24;;;;;;;42.65;26.65;;;;;;;9.95;83.37;102769.06;3573079;40;20190;-64
2021/12/15 04:50:50;;;;;;;47.88;28.38;;;;;;;9.95;83.44;102778.91;3568870;40;20320;-64
2021/12/15 04:53:16;;;;;;;44.63;28.38;;;;;;;9.91;83.27;102767.38;3570299;40;20171;-64
2021/12/15 04:55:41;;;;;;;44.67;27.65;;;;;;;9.96;83.75;102778.91;3562967;40;20056;-63
2021/12/15 04:58:11;;;;;;;47.90;28.60;;;;;;;9.96;83.67;102780.69;3562722;40;20056;-64
2021/12/15 05:00:53;;;;;;;44.90;28.05;;;;;;;9.98;83.63;102781.53;3572470;40;20048;-64
2021/12/15 05:03:20;;;;;;;42.72;26.73;;;;;;;9.93;83.48;102780.78;3573515;40;20040;-64
2021/12/15 05:05:46;;;;;;;43.33;28.13;;;;;;;9.94;83.83;102788.78;3573537;40;20320;-64
2021/12/15 05:08:11;;;;;;;43.22;25.88;;;;;;;9.96;83.90;102786.94;3572204;40;20056;-63
2021/12/15 05:10:38;;;;;;;43.03;27.35;;;;;;;9.97;83.50;102788.72;3570228;40;20292;-64
2021/12/15 05:13:06;;;;;;;45.05;27.70;;;;;;;9.98;83.87;102787.78;3573366;40;20088;-64
2021/12/15 05:15:33;;;;;;;43.03;26.88;;;;;;;9.96;83.65;102786.94;3570935;40;20059;-64
2021/12/15 05:17:59;;;;;;;43.28;26.35;;;;;;;9.96;83.53;102778.91;3571849;40;20162;-63
2021/12/15 05:20:26;;;;;;;43.75;27.02;;;;;;;9.92;83.86;102779.88;3571410;40;20407;-64
2021/12/15 05:22:54;;;;;;;42.25;26.40;;;;;;;9.95;83.12;102790.53;3572553;40;20049;-64
2021/12/15 05:25:21;;;;;;;43.70;26.33;;;;;;;9.97;83.11;102791.38;3572158;40;20497;-64
2021/12/15 05:27:48;;;;;;;42.65;26.83;;;;;;;9.96;83.30;102800.38;3569616;40;20300;-64
2021/12/15 05:30:18;;;;;;;39.03;26.00;;;;;;;9.97;83.26;102801.25;3572078;40;20052;-63
2021/12/15 05:32:45;;;;;;;45.20;27.85;;;;;;;9.85;83.40;102780.97;3572981;40;20096;-64
2021/12/15 05:35:15;;;;;;;46.72;27.77;;;;;;;9.95;83.54;102800.41;3570687;40;20394;-63
2021/12/15 05:37:42;;;;;;;43.97;27.38;;;;;;;9.96;83.93;102803.06;3570468;40;20045;-63
2021/12/15 05:40:09;;;;;;;45.42;27.83;;;;;;;9.93;83.88;102791.53;3576720;40;20056;-64
2021/12/15 05:42:35;;;;;;;41.97;26.70;;;;;;;9.84;83.85;102783.72;3572241;40;20063;-63
2021/12/15 05:45:01;;;;;;;47.72;28.20;;;;;;;9.95;83.95;102805.78;3569119;40;20052;-64
2021/12/15 05:47:26;;;;;;;43.78;27.23;;;;;;;9.93;83.34;102804.97;3570068;40;20165;-64
2021/12/15 05:49:55;;;;;;;45.40;28.23;;;;;;;9.61;83.51;102747.63;3573417;40;20060;-64
2021/12/15 05:52:26;;;;;;;43.95;26.80;;;;;;;9.92;84.12;102806.75;3573282;40;20726;-63
2021/12/15 05:54:52;;;;;;;43.85;26.92;;;;;;;9.94;84.06;102796.84;3572714;40;20049;-64
2021/12/15 05:57:17;;;;;;;46.47;28.33;;;;;;;9.94;83.99;102796.84;3563287;40;20060;-64
2021/12/15 05:59:43;;;;;;;44.65;27.20;;;;;;;9.88;83.81;102788.09;3574688;40;20060;-64
2021/12/15 06:02:09;;;;;;;45.58;28.13;;;;;;;9.86;83.65;102790.78;3570366;40;20063;-64
2021/12/15 06:04:35;;;;;;;49.22;28.05;;;;;;;9.92;83.55;102803.19;3574916;40;20319;-64
2021/12/15 06:07:03;;;;;;;46.17;28.17;;;;;;;9.93;84.03;102807.66;3574346;40;20408;-64
2021/12/15 06:09:28;;;;;;;47.90;28.20;;;;;;;9.94;84.06;102810.28;3573683;40;20053;-64
2021/12/15 06:11:54;;;;;;;49.85;27.13;;;;;;;9.94;83.79;102804.91;3574916;40;20121;-63
2021/12/15 06:14:24;;;;;;;51.75;28.63;;;;;;;9.75;83.70;102782.16;3574315;40;20084;-64
2021/12/15 06:16:55;;;;;;;49.65;29.83;;;;;;;9.94;84.14;102802.22;3574692;40;20384;-64
2021/12/15 06:19:21;;;;;;;50.72;28.65;;;;;;;9.93;83.87;102803.16;3574844;40;20665;-65
2021/12/15 06:21:46;;;;;;;48.80;28.17;;;;;;;9.94;83.99;102807.59;3573195;40;20047;-64
2021/12/15 06:24:12;;;;;;;52.17;29.90;;;;;;;9.94;84.27;102810.28;3570196;40;20049;-64
2021/12/15 06:26:39;;;;;;;52.35;30.60;;;;;;;9.86;83.83;102790.78;3575076;40;20057;-64
2021/12/15 06:29:04;;;;;;;52.75;29.80;;;;;;;9.93;84.12;102819.28;3571197;40;20079;-64
2021/12/15 06:31:30;;;;;;;53.00;30.85;;;;;;;9.91;83.76;102807.69;3573515;40;20387;-64
2021/12/15 06:33:56;;;;;;;49.40;28.73;;;;;;;9.96;84.19;102819.19;3573867;40;20064;-64
2021/12/15 06:36:22;;;;;;;54.38;29.48;;;;;;;9.95;84.15;102828.16;3574441;40;20146;-63
2021/12/15 06:38:53;;;;;;;50.60;29.42;;;;;;;9.96;83.54;102819.19;3572880;40;20056;-64
2021/12/15 06:41:21;;;;;;;49.45;28.88;;;;;;;9.97;84.24;102820.06;3571870;40;20056;-63
2021/12/15 06:43:55;;;;;;;51.83;30.77;;;;;;;9.97;84.17;102820.94;3571644;40;20354;-62
2021/12/15 06:58:10;;;;;;;53.72;30.75;;;;;;;9.93;83.88;102830.03;3573217;40;20141;-63
2021/12/15 07:00:17;;;;;;;56.92;31.35;;;;;;;9.95;84.17;102830.84;3573120;40;20319;-63
2021/12/15 07:02:44;;;;;;;54.53;30.98;;;;;;;9.95;84.42;102828.16;3572488;40;20061;-63
2021/12/15 07:05:11;;;;;;;61.22;31.52;;;;;;;9.97;83.78;102837.06;3574666;40;20058;-63
2021/12/15 07:07:40;;;;;;;54.60;31.13;;;;;;;9.94;84.49;102842.53;3571761;40;20060;-63
2021/12/15 07:10:11;;;;;;;56.63;32.22;;;;;;;9.95;84.61;102846.09;3570656;40;20041;-63
2021/12/15 07:12:37;;;;;;;55.40;31.17;;;;;;;9.95;83.89;102854.13;3570398;40;20063;-63
2021/12/15 07:15:06;;;;;;;60.47;32.33;;;;;;;9.94;83.91;102842.53;3573931;40;20069;-63
2021/12/15 07:17:32;;;;;;;58.75;31.48;;;;;;;9.97;84.04;102855.00;3570838;40;20412;-63
2021/12/15 07:22:43;;;;;;;56.50;30.75;;;;;;;9.99;84.37;102856.72;3572589;40;20403;-63
2021/12/15 07:25:12;;;;;;;56.13;30.67;;;;;;;9.98;84.72;102857.63;3573336;40;20037;-63
2021/12/15 07:27:40;;;;;;;59.08;31.83;;;;;;;9.97;84.45;102849.63;3571689;40;20067;-63
2021/12/15 07:30:08;;;;;;;60.83;31.00;;;;;;;10.00;83.93;102858.47;3572781;40;20063;-63
2021/12/15 07:32:35;;;;;;;55.78;32.05;;;;;;;10.02;84.15;102860.22;3571634;40;20061;-64
2021/12/15 07:35:00;;;;;;;59.65;32.63;;;;;;;9.98;84.21;102868.38;3572852;40;20064;-64
2021/12/15 07:37:26;;;;;;;59.03;32.20;;;;;;;9.99;84.78;102870.16;3573891;40;20138;-64
2021/12/15 07:39:58;;;;;;;60.55;32.30;;;;;;;10.00;84.50;102869.22;3573881;40;20064;-64
2021/12/15 07:42:36;;;;;;;60.58;34.33;;;;;;;10.00;84.56;102868.34;3572015;40;20088;-64
2021/12/15 07:45:05;;;;;;;57.85;33.30;;;;;;;9.98;83.99;102854.06;3573840;40;20068;-64
2021/12/15 07:47:31;;;;;;;65.93;34.42;;;;;;;9.97;84.35;102858.56;3570942;40;20383;-64
2021/12/15 07:50:01;;;;;;;59.90;32.42;;;;;;;10.02;84.66;102866.47;3573862;40;20123;-64
2021/12/15 07:52:29;;;;;;;61.35;33.55;;;;;;;10.02;84.06;102870.97;3573723;40;20044;-65
2021/12/15 07:54:55;;;;;;;65.50;34.65;;;;;;;10.00;83.90;102863.84;3574234;40;20041;-65
2021/12/15 07:57:23;;;;;;;60.50;32.92;;;;;;;10.03;84.08;102872.75;3572537;40;20071;-64
2021/12/15 07:59:50;;;;;;;60.90;32.60;;;;;;;10.04;84.61;102875.41;3572978;40;20330;-65
2021/12/15 08:02:16;;;;;;;61.92;33.35;;;;;;;10.04;84.25;102863.78;3573456;40;20058;-64
2021/12/15 08:04:42;;;;;;;62.47;32.95;;;;;;;10.04;84.59;102866.47;3574063;40;20344;-64
2021/12/15 08:07:08;;;;;;;61.00;34.15;;;;;;;10.06;84.18;102878.06;3571470;40;20056;-64
2021/12/15 08:09:34;;;;;;;59.92;33.30;;;;;;;10.06;83.72;102867.31;3573385;40;20060;-65
2021/12/15 08:12:00;;;;;;;58.08;33.30;;;;;;;10.05;84.58;102876.28;3571368;40;20056;-64
2021/12/15 08:14:25;;;;;;;63.70;33.85;;;;;;;9.93;84.36;102867.63;3573800;40;20060;-65
2021/12/15 08:16:51;;;;;;;70.57;35.72;;;;;;;10.05;83.88;102893.28;3570589;40;20053;-64
2021/12/15 08:19:19;;;;;;;63.03;34.65;;;;;;;10.07;84.17;102882.50;3574707;40;20080;-65
2021/12/15 08:21:47;;;;;;;63.80;34.08;;;;;;;10.07;84.49;102885.19;3574267;40;20041;-65
2021/12/15 08:24:13;;;;;;;66.82;35.78;;;;;;;10.05;83.78;102892.41;3573341;40;20048;-64
2021/12/15 08:26:39;;;;;;;65.05;35.80;;;;;;;9.84;84.49;102849.06;3574054;40;20061;-64
2021/12/15 08:29:07;;;;;;;69.10;36.28;;;;;;;10.04;84.49;102880.78;3571815;40;20045;-64
2021/12/15 08:31:33;;;;;;;64.15;33.70;;;;;;;9.89;84.03;102849.81;3570922;40;20402;-64
2021/12/15 08:33:59;;;;;;;63.50;34.13;;;;;;;10.08;84.20;102892.31;3570107;40;20075;-65
2021/12/15 08:36:24;;;;;;;66.53;36.63;;;;;;;10.08;84.24;102886.94;3568948;40;20359;-67
2021/12/15 08:38:52;;;;;;;63.90;35.22;;;;;;;10.11;84.22;102894.91;3573200;40;20056;-66
2021/12/15 08:41:29;;;;;;;64.65;35.10;;;;;;;10.11;83.95;102886.84;3573845;40;20111;-66
2021/12/15 08:43:57;;;;;;;68.90;36.28;;;;;;;10.16;83.69;102891.19;3575903;40;20057;-66
2021/12/15 08:46:32;;;;;;;68.65;36.65;;;;;;;10.14;84.08;102897.53;3575999;40;20381;-67
2021/12/15 08:49:01;;;;;;;60.97;35.05;;;;;;;10.15;83.90;102896.63;3576985;40;20053;-67
2021/12/15 08:51:28;;;;;;;63.55;35.28;;;;;;;10.15;84.15;102896.63;3573276;40;20344;-66
2021/12/15 08:54:00;;;;;;;61.85;34.72;;;;;;;10.16;83.56;102896.56;3575816;40;20388;-66
2021/12/15 08:56:26;;;;;;;64.85;35.95;;;;;;;10.19;83.57;102901.00;3575313;40;20421;-66
2021/12/15 08:58:53;;;;;;;61.45;34.90;;;;;;;10.11;84.22;102879.66;3576027;40;20045;-66
2021/12/15 09:01:21;;;;;;;58.95;34.45;;;;;;;10.18;83.52;102888.44;3571629;40;20091;-66
2021/12/15 09:03:47;;;;;;;63.53;36.13;;;;;;;10.21;83.53;102899.13;3573846;40;20048;-65
2021/12/15 09:06:13;;;;;;;65.43;35.63;;;;;;;10.23;83.36;102903.53;3572451;40;20118;-66
2021/12/15 09:08:42;;;;;;;62.38;35.17;;;;;;;10.25;84.01;102905.31;3574606;40;20094;-67
2021/12/15 09:11:14;;;;;;;56.47;33.55;;;;;;;10.25;83.53;102906.19;3573396;40;20054;-66
2021/12/15 09:13:43;;;;;;;64.35;35.85;;;;;;;10.27;84.07;102904.38;3571257;40;20118;-67
2021/12/15 09:16:12;;;;;;;59.63;34.00;;;;;;;10.29;83.23;102905.22;3574733;40;20055;-66
2021/12/15 09:18:43;;;;;;;61.00;35.67;;;;;;;10.31;83.68;102906.06;3572886;40;20104;-67
2021/12/15 09:21:12;;;;;;;58.17;34.55;;;;;;;10.34;83.68;102910.44;3572758;40;20045;-66
2021/12/15 09:23:39;;;;;;;56.72;33.33;;;;;;;10.29;83.26;102901.66;3569966;40;20057;-66
2021/12/15 09:26:06;;;;;;;60.80;33.90;;;;;;;10.35;83.66;102906.84;3568783;40;20435;-67
2021/12/15 09:28:32;;;;;;;57.55;34.08;;;;;;;10.35;83.19;102906.84;3573424;40;20083;-67
2021/12/15 09:30:59;;;;;;;54.47;33.78;;;;;;;10.41;83.28;102921.00;3572980;40;20092;-67
2021/12/15 09:33:32;;;;;;;55.63;35.00;;;;;;;10.42;83.35;102925.44;3570567;40;20150;-66
2021/12/15 09:36:00;;;;;;;56.70;33.65;;;;;;;10.39;83.35;102917.47;3571141;40;20119;-67
2021/12/15 09:38:27;;;;;;;61.15;35.78;;;;;;;10.44;83.55;102922.75;3569727;40;20057;-67
2021/12/15 09:40:58;;;;;;;54.60;33.42;;;;;;;10.25;83.06;102898.13;3571370;40;20088;-66
2021/12/15 09:43:27;;;;;;;55.42;35.08;;;;;;;10.45;83.47;102922.69;3573099;40;20052;-66
2021/12/15 09:46:11;;;;;;;60.50;35.08;;;;;;;10.50;83.17;102927.94;3571783;40;20302;-67
2021/12/15 09:57:16;;;;;;;58.70;34.47;;;;;;;10.57;82.86;102923.28;3572607;40;20311;-66
2021/12/15 10:02:47;;;;;;;61.85;35.78;;;;;;;10.64;82.74;102932.94;3574120;40;20063;-66
2021/12/15 10:20:58;;;;;;;53.28;35.15;;;;;;;10.77;82.47;102930.78;3571313;40;20060;-67
2021/12/15 10:23:31;;;;;;;51.90;34.20;;;;;;;10.82;82.23;102932.41;3570879;40;20052;-67
2021/12/15 10:25:57;;;;;;;53.78;34.08;;;;;;;10.86;82.36;102926.00;3564153;40;20154;-66
2021/12/15 10:28:31;;;;;;;57.83;36.35;;;;;;;10.90;81.98;102933.06;3571308;40;20053;-67
2021/12/15 10:31:04;;;;;;;54.28;34.92;;;;;;;10.97;82.00;102922.09;3574199;40;20094;-67
2021/12/15 10:33:41;;;;;;;53.08;35.03;;;;;;;10.88;81.72;102921.47;3573516;40;20053;-67
2021/12/15 10:36:15;;;;;;;55.58;36.75;;;;;;;10.95;81.53;102919.47;3572225;40;20057;-67
2021/12/15 10:38:53;;;;;;;50.88;35.25;;;;;;;11.01;81.46;102921.09;3570936;40;21813;-67
2021/12/15 10:41:35;;;;;;;52.95;34.78;;;;;;;11.07;81.47;102927.19;3564274;40;20061;-67
2021/12/15 10:44:09;;;;;;;51.65;35.35;;;;;;;11.10;81.36;102923.50;3570643;40;20064;-67
2021/12/15 10:46:43;;;;;;;49.20;32.90;;;;;;;11.09;81.02;102924.44;3572682;40;20422;-67
2021/12/15 10:49:21;;;;;;;53.05;35.15;;;;;;;11.08;80.98;102931.63;3563722;40;20052;-67
2021/12/15 10:51:59;;;;;;;56.17;36.40;;;;;;;11.09;81.30;102932.50;3572886;40;20052;-67
2021/12/15 10:54:34;;;;;;;55.08;36.90;;;;;;;11.09;81.18;102932.50;3572254;40;20470;-67
2021/12/15 10:57:15;;;;;;;53.33;36.38;;;;;;;10.86;81.28;102888.34;3574487;40;20142;-67
2021/12/15 10:59:51;;;;;;;54.17;35.22;;;;;;;11.16;81.49;102934.06;3572691;40;20053;-67
2021/12/15 11:02:24;;;;;;;49.38;34.28;;;;;;;11.18;80.63;102921.47;3573104;40;20411;-67
2021/12/15 11:05:06;;;;;;;51.95;36.00;;;;;;;11.30;80.67;102939.94;3571355;40;20063;-67
2021/12/15 11:07:54;;;;;;;54.15;36.28;;;;;;;11.34;80.83;102936.22;3573883;40;20085;-66
2021/12/15 11:10:38;;;;;;;52.35;35.67;;;;;;;11.11;80.59;102898.38;3572206;40;20106;-67
2021/12/15 11:13:14;;;;;;;53.80;35.95;;;;;;;11.06;80.62;102884.16;3553177;40;20378;-67
2021/12/15 11:15:50;;;;;;;52.95;35.30;;;;;;;11.31;80.39;102936.31;3566762;40;20079;-71
2021/12/15 11:18:28;;;;;;;50.60;35.35;;;;;;;11.33;80.48;102926.38;3573578;40;20057;-67
2021/12/15 11:21:08;;;;;;;48.42;34.58;;;;;;;11.31;80.24;102925.53;3572494;40;20048;-67
2021/12/15 11:23:34;;;;;;;52.08;36.17;;;;;;;11.29;80.50;102919.34;3572700;40;20079;-66
2021/12/15 11:26:15;;;;;;;50.03;35.90;;;;;;;11.35;80.21;102921.84;3562324;40;20052;-67
2021/12/15 11:28:48;;;;;;;49.08;34.60;;;;;;;11.36;80.56;102925.41;3573729;40;20049;-66
2021/12/15 11:31:30;;;;;;;53.22;35.83;;;;;;;11.38;80.13;102924.44;3574560;40;20053;-66
2021/12/15 11:34:05;;;;;;;45.63;33.55;;;;;;;11.42;79.95;102929.69;3570439;40;20048;-65
2021/12/15 11:36:43;;;;;;;46.30;33.25;;;;;;;11.44;79.98;102917.06;3572766;40;20096;-66
2021/12/15 11:39:17;;;;;;;53.10;35.05;;;;;;;11.43;79.89;102926.09;3572530;40;20100;-66
2021/12/15 11:41:48;;;;;;;50.35;35.00;;;;;;;11.45;79.96;102929.59;3573809;40;20330;-65
2021/12/15 11:44:25;;;;;;;44.63;34.00;;;;;;;11.49;79.75;102917.81;3566092;40;20144;-65
2021/12/15 11:47:00;;;;;;;46.92;33.83;;;;;;;11.46;79.51;102909.84;3574251;40;20056;-67
2021/12/15 11:49:29;;;;;;;46.47;33.08;;;;;;;11.51;79.43;102924.00;3575097;40;20052;-67
2021/12/15 11:52:04;;;;;;;43.28;33.40;;;;;;;11.55;79.20;102923.00;3565883;40;20052;-67
2021/12/15 11:54:37;;;;;;;46.92;33.53;;;;;;;11.53;79.17;102920.34;3573555;40;20130;-67
2021/12/15 11:57:22;;;;;;;44.15;33.33;;;;;;;11.53;79.28;102922.16;3573539;40;20059;-68
2021/12/15 11:59:56;;;;;;;47.90;32.47;;;;;;;11.56;78.88;102916.69;3573202;40;20056;-68
2021/12/15 12:02:27;;;;;;;;;;;;;;;11.55;78.99;102917.63;3574406;40;20053;-68
2021/12/15 12:04:58;;;;;;;40.05;30.08;;;;;;;11.50;78.92;102915.06;3572464;40;20006;-67
2021/12/15 12:07:47;;;;;;;44.33;29.60;;;;;;;11.51;79.30;102918.63;3574609;40;20052;-68
2021/12/15 12:10:23;;;;;;;41.13;31.75;;;;;;;11.52;78.60;102920.41;3572785;40;20060;-67
2021/12/15 12:13:08;;;;;;;39.40;31.75;;;;;;;11.37;78.72;102906.50;3573345;40;20073;-67
2021/12/15 12:15:44;;;;;;;41.08;30.95;;;;;;;11.47;79.23;102912.47;3573964;40;20061;-68
2021/12/15 12:18:19;;;;;;;42.08;31.33;;;;;;;11.50;78.62;102904.28;3571937;40;20059;-65
2021/12/15 12:20:53;;;;;;;40.97;31.08;;;;;;;11.51;78.76;102903.38;3570162;40;20126;-66
2021/12/15 12:23:25;;;;;;;40.53;30.02;;;;;;;11.53;78.89;102900.63;3572968;40;20056;-66
2021/12/15 12:25:56;;;;;;;40.78;30.42;;;;;;;11.57;78.36;102905.84;3573843;40;20056;-65
2021/12/15 12:28:26;;;;;;;43.53;30.98;;;;;;;11.59;78.70;102905.81;3563769;40;20146;-65
2021/12/15 12:31:07;;;;;;;41.80;30.67;;;;;;;11.55;78.32;102907.72;3565869;40;20045;-66
2021/12/15 12:33:34;;;;;;;39.15;29.75;;;;;;;11.55;78.58;102896.94;3574258;40;20092;-66
2021/12/15 12:36:04;;;;;;;41.28;29.88;;;;;;;11.59;78.18;102901.28;3558365;40;20368;-66